createdAt,value
2022-11-23T00:02:20.307Z,11.00
2022-11-23T00:07:22.619Z,10.98
2022-11-23T00:12:24.748Z,10.91
2022-11-23T00:17:26.875Z,10.77
2022-11-23T00:22:28.948Z,10.65
2022-11-23T00:27:31.067Z,10.45
2022-11-23T00:32:33.292Z,10.15
2022-11-23T00:37:35.387Z,9.94
2022-11-23T00:42:38.355Z,9.56
2022-11-23T00:47:40.810Z,9.36
2022-11-23T00:52:43.041Z,9.14
2022-11-23T00:57:45.073Z,9.14
2022-11-23T01:02:47.172Z,9.06
2022-11-23T01:07:49.306Z,9.28
2022-11-23T01:12:51.621Z,9.32
2022-11-23T01:17:53.839Z,9.22
2022-11-23T01:22:55.925Z,9.23
2022-11-23T01:27:57.918Z,9.04
2022-11-23T01:33:01.543Z,9.35
2022-11-23T01:38:03.873Z,9.35
2022-11-23T01:43:13.880Z,9.45
2022-11-23T01:48:20.988Z,9.62
2022-11-23T01:53:23.687Z,9.74
2022-11-23T01:58:28.432Z,9.77
2022-11-23T02:03:33.058Z,9.89
2022-11-23T02:08:37.912Z,10.20
2022-11-23T02:13:41.093Z,10.37
2022-11-23T02:18:45.670Z,10.32
2022-11-23T02:23:50.874Z,10.38
2022-11-23T02:28:56.072Z,10.33
2022-11-23T02:33:58.636Z,10.24
2022-11-23T02:39:05.630Z,10.27
2022-11-23T02:44:18.102Z,10.58
2022-11-23T02:49:20.436Z,10.70
2022-11-23T02:54:22.448Z,10.53
2022-11-23T02:59:24.517Z,10.32
2022-11-23T03:04:28.324Z,10.39
2022-11-23T03:09:30.911Z,10.32
2022-11-23T03:14:33.450Z,10.40
2022-11-23T03:19:35.973Z,10.49
2022-11-23T03:24:38.280Z,10.59
2022-11-23T03:29:41.931Z,10.70
2022-11-23T03:34:50.348Z,10.64
2022-11-23T03:39:55.006Z,10.78
2022-11-23T03:45:23.356Z,10.92
2022-11-23T03:50:25.460Z,10.67
2022-11-23T03:55:27.780Z,10.86
2022-11-23T04:00:31.208Z,10.70
2022-11-23T04:05:34.014Z,10.60
2022-11-23T04:10:59.299Z,10.49
2022-11-23T04:16:19.316Z,10.60
2022-11-23T04:21:21.602Z,10.39
2022-11-23T04:26:23.805Z,10.47
2022-11-23T04:31:25.970Z,10.26
2022-11-23T04:36:43.212Z,10.24
2022-11-23T04:41:46.235Z,10.35
2022-11-23T04:46:50.433Z,10.25
2022-11-23T04:51:54.881Z,10.12
2022-11-23T04:57:03.441Z,9.94
2022-11-23T05:02:05.847Z,10.19
2022-11-23T05:07:19.017Z,9.95
2022-11-23T05:12:27.839Z,9.81
2022-11-23T05:17:30.343Z,9.81
2022-11-23T05:22:32.459Z,9.66
2022-11-23T05:27:35.381Z,9.83
2022-11-23T05:32:37.721Z,9.75
2022-11-23T05:37:41.862Z,9.51
2022-11-23T05:42:46.729Z,9.73
2022-11-23T05:47:57.316Z,9.34
2022-11-23T05:53:28.774Z,9.39
2022-11-23T05:58:38.230Z,9.47
2022-11-23T06:03:41.324Z,9.64
2022-11-23T06:08:49.003Z,9.89
2022-11-23T06:13:52.917Z,9.96
2022-11-23T06:18:55.246Z,10.10
2022-11-23T06:23:57.327Z,10.44
2022-11-23T06:29:00.938Z,10.58
2022-11-23T06:34:04.366Z,10.95
2022-11-23T06:39:08.871Z,10.90
2022-11-23T06:44:10.936Z,10.97
2022-11-23T06:49:17.447Z,11.44
2022-11-23T06:54:27.330Z,11.38
2022-11-23T06:59:31.644Z,10.83
2022-11-23T07:04:34.232Z,10.97
2022-11-23T07:09:39.528Z,11.34
2022-11-23T07:14:53.680Z,11.52
2022-11-23T07:19:56.039Z,12.18
2022-11-23T07:24:58.300Z,12.42
2022-11-23T07:30:00.480Z,12.54
2022-11-23T07:35:02.588Z,12.71
2022-11-23T07:40:07.820Z,13.01
2022-11-23T07:45:12.643Z,13.23
2022-11-23T07:50:19.456Z,13.24
2022-11-23T07:55:21.815Z,13.37
2022-11-23T08:00:26.041Z,13.39
2022-11-23T08:05:28.508Z,13.45
2022-11-23T08:10:32.161Z,13.49
2022-11-23T08:15:35.915Z,13.58
2022-11-23T08:20:38.071Z,13.67
2022-11-23T08:25:40.188Z,13.75
2022-11-23T08:30:42.563Z,14.03
2022-11-23T08:35:44.596Z,14.25
2022-11-23T08:40:46.755Z,14.74
2022-11-23T08:45:49.106Z,15.11
2022-11-23T08:50:52.182Z,15.48
2022-11-23T08:55:54.252Z,15.32
2022-11-23T09:00:56.522Z,15.60
2022-11-23T09:06:00.891Z,15.71
2022-11-23T09:11:05.668Z,15.60
2022-11-23T09:16:08.698Z,14.92
2022-11-23T09:21:17.744Z,14.54
2022-11-23T09:26:20.040Z,14.48
2022-11-23T09:31:24.152Z,14.84
2022-11-23T09:36:26.388Z,15.10
2022-11-23T09:42:03.833Z,15.39
2022-11-23T09:47:22.842Z,15.43
2022-11-23T09:52:26.085Z,15.03
2022-11-23T09:57:32.891Z,15.25
2022-11-23T10:02:40.703Z,15.87
2022-11-23T10:08:19.387Z,15.86
2022-11-23T10:14:00.125Z,15.97
2022-11-23T10:19:14.387Z,16.30
2022-11-23T10:24:20.388Z,16.34
2022-11-23T10:29:38.362Z,16.43
2022-11-23T10:35:00.665Z,16.69
2022-11-23T10:40:02.814Z,16.84
2022-11-23T10:45:06.153Z,16.41
2022-11-23T10:50:29.977Z,16.30
2022-11-23T10:55:58.339Z,15.97
2022-11-23T11:01:06.113Z,15.81
2022-11-23T11:06:10.170Z,15.88
2022-11-23T11:11:27.120Z,15.62
2022-11-23T11:16:32.507Z,15.15
2022-11-23T11:21:41.165Z,15.37
2022-11-23T11:27:02.825Z,15.48
2022-11-23T11:32:12.495Z,15.68
2022-11-23T11:37:32.414Z,15.50
2022-11-23T11:42:41.039Z,15.44
2022-11-23T11:48:10.732Z,15.61
2022-11-23T11:53:18.235Z,15.67
2022-11-23T11:58:24.216Z,15.54
2022-11-23T12:03:44.277Z,15.99
2022-11-23T12:09:14.487Z,16.34
2022-11-23T12:14:17.467Z,15.95
2022-11-23T12:19:25.466Z,15.73
2022-11-23T12:24:42.559Z,15.90
2022-11-23T12:30:03.412Z,15.99
2022-11-23T12:35:30.288Z,16.00
2022-11-23T12:40:49.200Z,16.02
2022-11-23T12:45:51.586Z,16.33
2022-11-23T12:51:32.332Z,15.88
2022-11-23T12:56:51.248Z,16.11
2022-11-23T13:02:00.771Z,15.98
2022-11-23T13:07:42.291Z,15.98
2022-11-23T13:13:16.362Z,15.72
2022-11-23T13:18:18.570Z,15.41
2022-11-23T13:23:23.712Z,15.30
2022-11-23T13:28:31.074Z,15.43
2022-11-23T13:33:39.360Z,15.27
2022-11-23T13:38:44.971Z,15.36
2022-11-23T13:43:47.411Z,15.09
2022-11-23T13:48:57.150Z,14.85
2022-11-23T13:54:05.718Z,14.66
2022-11-23T13:59:25.572Z,14.65
2022-11-23T14:04:32.462Z,14.65
2022-11-23T14:09:43.132Z,14.49
2022-11-23T14:14:51.432Z,14.35
2022-11-23T14:20:30.649Z,14.31
2022-11-23T14:26:09.761Z,14.01
2022-11-23T14:31:28.051Z,13.82
2022-11-23T14:36:42.168Z,13.86
2022-11-23T14:41:50.380Z,13.70
2022-11-23T14:47:07.616Z,13.58
2022-11-23T14:52:28.093Z,13.54
2022-11-23T14:57:46.976Z,13.33
2022-11-23T15:02:49.761Z,13.18
2022-11-23T15:08:00.632Z,12.94
2022-11-23T15:13:03.137Z,12.72
2022-11-23T15:18:05.416Z,12.60
2022-11-23T15:23:17.742Z,12.50
2022-11-23T15:28:27.542Z,12.43
2022-11-23T15:33:29.804Z,12.33
2022-11-23T15:38:32.308Z,12.22
2022-11-23T15:43:34.502Z,12.27
2022-11-23T15:48:38.125Z,12.61
2022-11-23T15:53:49.881Z,13.30
2022-11-23T15:58:53.403Z,13.51
2022-11-23T16:04:12.714Z,13.33
2022-11-23T16:09:53.955Z,13.53
2022-11-23T16:14:59.389Z,13.18
2022-11-23T16:20:05.225Z,12.68
2022-11-23T16:25:09.244Z,13.07
2022-11-23T16:30:35.165Z,12.26
2022-11-23T16:35:37.502Z,10.97
2022-11-23T16:40:40.715Z,11.94
2022-11-23T16:45:45.110Z,12.73
2022-11-23T16:50:47.457Z,12.11
2022-11-23T16:55:57.254Z,12.41
2022-11-23T17:01:03.656Z,12.09
2022-11-23T17:06:24.515Z,12.20
2022-11-23T17:11:27.108Z,11.99
2022-11-23T17:16:31.147Z,11.20
2022-11-23T17:21:33.387Z,11.43
2022-11-23T17:26:38.963Z,10.82
2022-11-23T17:31:43.716Z,10.18
2022-11-23T17:36:47.887Z,10.91
2022-11-23T17:41:50.284Z,10.35
2022-11-23T17:47:00.895Z,9.58
2022-11-23T17:52:03.456Z,9.30
2022-11-23T17:57:05.655Z,8.62
2022-11-23T18:02:08.979Z,8.20
2022-11-23T18:07:14.337Z,8.01
2022-11-23T18:12:17.600Z,7.67
2022-11-23T18:17:22.488Z,7.69
2022-11-23T18:22:24.610Z,7.67
2022-11-23T18:27:27.385Z,7.53
2022-11-23T18:32:29.413Z,7.21
2022-11-23T18:37:31.607Z,7.16
2022-11-23T18:42:33.888Z,6.92
2022-11-23T18:47:35.991Z,7.07
2022-11-23T18:52:38.305Z,7.11
2022-11-23T18:57:40.548Z,6.66
2022-11-23T19:02:42.910Z,6.78
2022-11-23T19:07:45.073Z,6.54
2022-11-23T19:12:47.267Z,6.59
2022-11-23T19:17:49.666Z,6.55
2022-11-23T19:22:52.305Z,6.14
2022-11-23T19:27:54.668Z,6.04
2022-11-23T19:32:58.533Z,6.08
2022-11-23T19:38:00.873Z,5.88
2022-11-23T19:43:03.150Z,5.92
2022-11-23T19:48:05.476Z,5.53
2022-11-23T19:53:12.878Z,5.57
2022-11-23T19:58:18.677Z,5.80
2022-11-23T20:03:20.951Z,5.39
2022-11-23T20:08:23.251Z,5.35
2022-11-23T20:13:25.562Z,5.34
2022-11-23T20:18:29.817Z,5.27
2022-11-23T20:23:41.442Z,5.42
2022-11-23T20:28:43.913Z,5.12
2022-11-23T20:33:46.522Z,4.87
2022-11-23T20:38:49.367Z,5.03
2022-11-23T20:43:55.099Z,4.76
2022-11-23T20:49:00.155Z,4.56
2022-11-23T20:54:02.613Z,4.76
2022-11-23T20:59:05.210Z,4.62
2022-11-23T21:04:08.552Z,4.75
2022-11-23T21:09:11.493Z,4.30
2022-11-23T21:14:21.836Z,4.54
2022-11-23T21:19:32.820Z,4.49
2022-11-23T21:24:35.867Z,4.53
2022-11-23T21:29:38.759Z,4.07
2022-11-23T21:34:40.844Z,4.17
2022-11-23T21:39:46.599Z,4.21
2022-11-23T21:44:51.840Z,4.31
2022-11-23T21:49:54.058Z,4.34
2022-11-23T21:54:56.157Z,4.27
2022-11-23T21:59:58.302Z,3.74
2022-11-23T22:05:00.324Z,3.85
2022-11-23T22:10:02.643Z,3.98
2022-11-23T22:15:05.261Z,3.97
2022-11-23T22:20:08.556Z,3.95
2022-11-23T22:25:11.251Z,3.83
2022-11-23T22:30:13.783Z,3.77
2022-11-23T22:35:16.202Z,3.95
2022-11-23T22:40:18.579Z,3.52
2022-11-23T22:45:20.688Z,3.66
2022-11-23T22:50:22.755Z,3.77
2022-11-23T22:55:25.153Z,3.83
2022-11-23T23:00:27.286Z,3.35
2022-11-23T23:05:29.370Z,3.43
2022-11-23T23:10:31.600Z,3.56
2022-11-23T23:15:33.958Z,3.54
2022-11-23T23:20:36.596Z,3.56
2022-11-23T23:25:38.975Z,3.61
2022-11-23T23:30:41.069Z,3.48
2022-11-23T23:35:51.337Z,3.34
2022-11-23T23:40:56.432Z,3.57
2022-11-23T23:46:00.379Z,3.40
2022-11-23T23:51:07.349Z,3.38
2022-11-23T23:56:14.817Z,3.19
